sensor_id;sensor_type;location;lat;lon;timestamp;temperature;humidity
16825;DHT22;8529;48.108;-1.706;2022-07-03T00:01:29;16.70;99.90
16825;DHT22;8529;48.108;-1.706;2022-07-03T00:03:57;16.60;99.90
16825;DHT22;8529;48.108;-1.706;2022-07-03T00:06:25;16.60;99.90
16825;DHT22;8529;48.108;-1.706;2022-07-03T00:08:52;16.60;99.90
16825;DHT22;8529;48.108;-1.706;2022-07-03T00:11:20;16.60;99.90
16825;DHT22;8529;48.108;-1.706;2022-07-03T00:13:47;16.60;99.90
16825;DHT22;8529;48.108;-1.706;2022-07-03T00:16:14;16.60;99.90
16825;DHT22;8529;48.108;-1.706;2022-07-03T00:18:42;16.60;99.90
16825;DHT22;8529;48.108;-1.706;2022-07-03T00:21:12;16.50;99.90
16825;DHT22;8529;48.108;-1.706;2022-07-03T00:23:46;16.60;99.90
16825;DHT22;8529;48.108;-1.706;2022-07-03T00:26:13;16.50;99.90
16825;DHT22;8529;48.108;-1.706;2022-07-03T00:28:43;16.50;99.90
16825;DHT22;8529;48.108;-1.706;2022-07-03T00:31:12;16.50;99.90
16825;DHT22;8529;48.108;-1.706;2022-07-03T00:33:41;16.50;99.90
16825;DHT22;8529;48.108;-1.706;2022-07-03T00:36:08;16.40;99.90
16825;DHT22;8529;48.108;-1.706;2022-07-03T00:38:37;16.40;99.90
16825;DHT22;8529;48.108;-1.706;2022-07-03T00:41:03;16.40;99.90
16825;DHT22;8529;48.108;-1.706;2022-07-03T00:43:31;16.30;99.90
16825;DHT22;8529;48.108;-1.706;2022-07-03T00:46:07;16.30;99.90
16825;DHT22;8529;48.108;-1.706;2022-07-03T00:48:37;16.30;99.90
16825;DHT22;8529;48.108;-1.706;2022-07-03T00:51:06;16.20;99.90
16825;DHT22;8529;48.108;-1.706;2022-07-03T00:53:37;16.20;99.90
16825;DHT22;8529;48.108;-1.706;2022-07-03T00:56:08;16.20;99.90
16825;DHT22;8529;48.108;-1.706;2022-07-03T00:58:40;16.10;99.90
16825;DHT22;8529;48.108;-1.706;2022-07-03T01:01:09;16.10;99.90
16825;DHT22;8529;48.108;-1.706;2022-07-03T01:03:40;16.10;99.90
16825;DHT22;8529;48.108;-1.706;2022-07-03T01:06:14;16.10;99.90
16825;DHT22;8529;48.108;-1.706;2022-07-03T01:08:45;16.10;99.90
16825;DHT22;8529;48.108;-1.706;2022-07-03T01:11:20;16.00;99.90
16825;DHT22;8529;48.108;-1.706;2022-07-03T01:13:58;16.00;99.90
16825;DHT22;8529;48.108;-1.706;2022-07-03T01:16:31;16.00;99.90
16825;DHT22;8529;48.108;-1.706;2022-07-03T01:19:10;16.00;99.90
16825;DHT22;8529;48.108;-1.706;2022-07-03T01:21:50;16.00;99.90
16825;DHT22;8529;48.108;-1.706;2022-07-03T01:24:47;16.00;99.90
16825;DHT22;8529;48.108;-1.706;2022-07-03T01:27:27;16.00;99.90
16825;DHT22;8529;48.108;-1.706;2022-07-03T01:30:00;15.90;99.90
16825;DHT22;8529;48.108;-1.706;2022-07-03T01:32:31;15.80;99.90
16825;DHT22;8529;48.108;-1.706;2022-07-03T01:35:01;15.80;99.90
16825;DHT22;8529;48.108;-1.706;2022-07-03T01:37:30;15.70;99.90
16825;DHT22;8529;48.108;-1.706;2022-07-03T01:39:58;15.70;99.90
16825;DHT22;8529;48.108;-1.706;2022-07-03T01:42:29;15.80;99.90
16825;DHT22;8529;48.108;-1.706;2022-07-03T01:44:59;15.80;99.90
16825;DHT22;8529;48.108;-1.706;2022-07-03T01:47:27;15.80;99.90
16825;DHT22;8529;48.108;-1.706;2022-07-03T01:49:55;15.80;99.90
16825;DHT22;8529;48.108;-1.706;2022-07-03T01:52:25;15.90;99.90
16825;DHT22;8529;48.108;-1.706;2022-07-03T01:54:54;16.00;99.90
16825;DHT22;8529;48.108;-1.706;2022-07-03T01:57:24;16.00;99.90
16825;DHT22;8529;48.108;-1.706;2022-07-03T01:59:59;16.00;99.90
16825;DHT22;8529;48.108;-1.706;2022-07-03T02:02:33;16.00;99.90
16825;DHT22;8529;48.108;-1.706;2022-07-03T02:05:07;16.00;99.90
16825;DHT22;8529;48.108;-1.706;2022-07-03T02:07:39;15.90;99.90
16825;DHT22;8529;48.108;-1.706;2022-07-03T02:10:08;15.90;99.90
16825;DHT22;8529;48.108;-1.706;2022-07-03T02:12:39;15.90;99.90
16825;DHT22;8529;48.108;-1.706;2022-07-03T02:15:09;15.90;99.90
16825;DHT22;8529;48.108;-1.706;2022-07-03T02:17:38;15.90;99.90
16825;DHT22;8529;48.108;-1.706;2022-07-03T02:20:07;15.90;99.90
16825;DHT22;8529;48.108;-1.706;2022-07-03T02:22:36;16.00;99.90
16825;DHT22;8529;48.108;-1.706;2022-07-03T02:25:06;16.00;99.90
16825;DHT22;8529;48.108;-1.706;2022-07-03T02:27:42;16.00;99.90
16825;DHT22;8529;48.108;-1.706;2022-07-03T02:30:12;16.00;99.90
16825;DHT22;8529;48.108;-1.706;2022-07-03T02:32:44;16.10;99.90
16825;DHT22;8529;48.108;-1.706;2022-07-03T02:35:12;16.10;99.90
16825;DHT22;8529;48.108;-1.706;2022-07-03T02:37:45;16.10;99.90
16825;DHT22;8529;48.108;-1.706;2022-07-03T02:40:20;16.00;99.90
16825;DHT22;8529;48.108;-1.706;2022-07-03T02:42:59;16.00;99.90
16825;DHT22;8529;48.108;-1.706;2022-07-03T02:45:36;15.90;99.90
16825;DHT22;8529;48.108;-1.706;2022-07-03T02:48:10;15.70;99.90
16825;DHT22;8529;48.108;-1.706;2022-07-03T02:50:40;15.70;99.90
16825;DHT22;8529;48.108;-1.706;2022-07-03T02:53:24;15.60;99.90
16825;DHT22;8529;48.108;-1.706;2022-07-03T02:55:58;15.50;99.90
16825;DHT22;8529;48.108;-1.706;2022-07-03T02:58:54;15.40;99.90
16825;DHT22;8529;48.108;-1.706;2022-07-03T03:01:37;15.40;99.90
16825;DHT22;8529;48.108;-1.706;2022-07-03T03:04:09;15.30;99.90
16825;DHT22;8529;48.108;-1.706;2022-07-03T03:06:41;15.30;99.90
16825;DHT22;8529;48.108;-1.706;2022-07-03T03:09:14;15.20;99.90
16825;DHT22;8529;48.108;-1.706;2022-07-03T03:11:43;15.20;99.90
16825;DHT22;8529;48.108;-1.706;2022-07-03T03:14:12;15.10;99.90
16825;DHT22;8529;48.108;-1.706;2022-07-03T03:16:46;15.10;99.90
16825;DHT22;8529;48.108;-1.706;2022-07-03T03:19:13;15.20;99.90
16825;DHT22;8529;48.108;-1.706;2022-07-03T03:21:49;15.20;99.90
16825;DHT22;8529;48.108;-1.706;2022-07-03T03:24:18;15.20;99.90
16825;DHT22;8529;48.108;-1.706;2022-07-03T03:26:46;15.30;99.90
16825;DHT22;8529;48.108;-1.706;2022-07-03T03:29:13;15.20;99.90
16825;DHT22;8529;48.108;-1.706;2022-07-03T03:31:41;15.30;99.90
16825;DHT22;8529;48.108;-1.706;2022-07-03T03:34:09;15.20;99.90
16825;DHT22;8529;48.108;-1.706;2022-07-03T03:36:36;15.20;99.90
16825;DHT22;8529;48.108;-1.706;2022-07-03T03:39:04;15.10;99.90
16825;DHT22;8529;48.108;-1.706;2022-07-03T03:41:31;15.10;99.90
16825;DHT22;8529;48.108;-1.706;2022-07-03T03:43:59;15.00;99.90
16825;DHT22;8529;48.108;-1.706;2022-07-03T03:46:26;15.00;99.90
16825;DHT22;8529;48.108;-1.706;2022-07-03T03:48:54;15.00;99.90
16825;DHT22;8529;48.108;-1.706;2022-07-03T03:51:22;14.90;99.90
16825;DHT22;8529;48.108;-1.706;2022-07-03T03:53:49;14.90;99.90
16825;DHT22;8529;48.108;-1.706;2022-07-03T03:56:16;14.90;99.90
16825;DHT22;8529;48.108;-1.706;2022-07-03T03:58:43;14.80;99.90
16825;DHT22;8529;48.108;-1.706;2022-07-03T04:01:11;14.70;99.90
16825;DHT22;8529;48.108;-1.706;2022-07-03T04:03:39;14.70;99.90
16825;DHT22;8529;48.108;-1.706;2022-07-03T04:06:08;14.70;99.90
16825;DHT22;8529;48.108;-1.706;2022-07-03T04:08:35;14.70;99.90
16825;DHT22;8529;48.108;-1.706;2022-07-03T04:11:02;14.60;99.90
16825;DHT22;8529;48.108;-1.706;2022-07-03T04:13:29;14.60;99.90
16825;DHT22;8529;48.108;-1.706;2022-07-03T04:15:57;14.50;99.90
16825;DHT22;8529;48.108;-1.706;2022-07-03T04:18:24;14.50;99.90
16825;DHT22;8529;48.108;-1.706;2022-07-03T04:20:51;14.50;99.90
16825;DHT22;8529;48.108;-1.706;2022-07-03T04:23:19;14.50;99.90
16825;DHT22;8529;48.108;-1.706;2022-07-03T04:25:47;14.50;99.90
16825;DHT22;8529;48.108;-1.706;2022-07-03T04:28:14;14.60;99.90
16825;DHT22;8529;48.108;-1.706;2022-07-03T04:30:41;14.60;99.90
16825;DHT22;8529;48.108;-1.706;2022-07-03T04:33:08;14.70;99.90
16825;DHT22;8529;48.108;-1.706;2022-07-03T04:35:34;14.70;99.90
16825;DHT22;8529;48.108;-1.706;2022-07-03T04:38:01;14.70;99.90
16825;DHT22;8529;48.108;-1.706;2022-07-03T04:40:30;14.70;99.90
16825;DHT22;8529;48.108;-1.706;2022-07-03T04:42:57;14.70;99.90
16825;DHT22;8529;48.108;-1.706;2022-07-03T04:45:23;14.70;99.90
16825;DHT22;8529;48.108;-1.706;2022-07-03T04:47:50;14.70;99.90
16825;DHT22;8529;48.108;-1.706;2022-07-03T04:50:17;14.70;99.90
16825;DHT22;8529;48.108;-1.706;2022-07-03T04:52:44;14.70;99.90
16825;DHT22;8529;48.108;-1.706;2022-07-03T04:55:11;14.60;99.90
16825;DHT22;8529;48.108;-1.706;2022-07-03T04:57:40;14.60;99.90
16825;DHT22;8529;48.108;-1.706;2022-07-03T05:00:07;14.60;99.90
16825;DHT22;8529;48.108;-1.706;2022-07-03T05:02:35;14.60;99.90
16825;DHT22;8529;48.108;-1.706;2022-07-03T05:05:02;14.70;99.90
16825;DHT22;8529;48.108;-1.706;2022-07-03T05:07:29;14.70;99.90
16825;DHT22;8529;48.108;-1.706;2022-07-03T05:09:56;14.70;99.90
16825;DHT22;8529;48.108;-1.706;2022-07-03T05:12:23;14.70;99.90
16825;DHT22;8529;48.108;-1.706;2022-07-03T05:14:52;14.80;99.90
16825;DHT22;8529;48.108;-1.706;2022-07-03T05:17:19;14.70;99.90
16825;DHT22;8529;48.108;-1.706;2022-07-03T05:19:46;14.70;99.90
16825;DHT22;8529;48.108;-1.706;2022-07-03T05:22:13;14.60;99.90
16825;DHT22;8529;48.108;-1.706;2022-07-03T05:24:42;14.60;99.90
16825;DHT22;8529;48.108;-1.706;2022-07-03T05:27:09;14.60;99.90
16825;DHT22;8529;48.108;-1.706;2022-07-03T05:29:36;14.70;99.90
16825;DHT22;8529;48.108;-1.706;2022-07-03T05:32:05;14.70;99.90
16825;DHT22;8529;48.108;-1.706;2022-07-03T05:34:32;14.70;99.90
16825;DHT22;8529;48.108;-1.706;2022-07-03T05:36:59;14.70;99.90
16825;DHT22;8529;48.108;-1.706;2022-07-03T05:39:26;14.80;99.90
16825;DHT22;8529;48.108;-1.706;2022-07-03T05:41:59;14.80;99.90
16825;DHT22;8529;48.108;-1.706;2022-07-03T05:44:26;14.80;99.90
16825;DHT22;8529;48.108;-1.706;2022-07-03T05:46:53;14.90;99.90
16825;DHT22;8529;48.108;-1.706;2022-07-03T05:49:21;15.00;99.90
16825;DHT22;8529;48.108;-1.706;2022-07-03T05:51:48;15.00;99.90
16825;DHT22;8529;48.108;-1.706;2022-07-03T05:54:15;15.10;99.90
16825;DHT22;8529;48.108;-1.706;2022-07-03T05:56:42;15.10;99.90
16825;DHT22;8529;48.108;-1.706;2022-07-03T05:59:09;15.10;99.90
16825;DHT22;8529;48.108;-1.706;2022-07-03T06:01:36;15.20;99.90
16825;DHT22;8529;48.108;-1.706;2022-07-03T06:04:03;15.20;99.90
16825;DHT22;8529;48.108;-1.706;2022-07-03T06:06:31;15.30;99.90
16825;DHT22;8529;48.108;-1.706;2022-07-03T06:08:58;15.30;99.90
16825;DHT22;8529;48.108;-1.706;2022-07-03T06:11:25;15.40;99.90
16825;DHT22;8529;48.108;-1.706;2022-07-03T06:13:52;15.40;99.90
16825;DHT22;8529;48.108;-1.706;2022-07-03T06:16:19;15.50;99.90
16825;DHT22;8529;48.108;-1.706;2022-07-03T06:18:46;15.50;99.90
16825;DHT22;8529;48.108;-1.706;2022-07-03T06:21:13;15.50;99.90
16825;DHT22;8529;48.108;-1.706;2022-07-03T06:23:42;15.50;99.90
16825;DHT22;8529;48.108;-1.706;2022-07-03T06:26:08;15.60;99.90
16825;DHT22;8529;48.108;-1.706;2022-07-03T06:28:35;15.60;99.90
16825;DHT22;8529;48.108;-1.706;2022-07-03T06:31:02;15.60;99.90
16825;DHT22;8529;48.108;-1.706;2022-07-03T06:33:29;15.60;99.90
16825;DHT22;8529;48.108;-1.706;2022-07-03T06:35:56;15.70;99.90
16825;DHT22;8529;48.108;-1.706;2022-07-03T06:38:23;15.70;99.90
16825;DHT22;8529;48.108;-1.706;2022-07-03T06:40:52;15.80;99.90
16825;DHT22;8529;48.108;-1.706;2022-07-03T06:43:19;15.80;99.90
16825;DHT22;8529;48.108;-1.706;2022-07-03T06:45:46;15.90;99.90
16825;DHT22;8529;48.108;-1.706;2022-07-03T06:48:12;15.90;99.90
16825;DHT22;8529;48.108;-1.706;2022-07-03T06:50:40;16.00;99.90
16825;DHT22;8529;48.108;-1.706;2022-07-03T06:53:07;16.20;99.90
16825;DHT22;8529;48.108;-1.706;2022-07-03T06:55:34;16.60;99.90
16825;DHT22;8529;48.108;-1.706;2022-07-03T06:58:02;17.00;99.90
16825;DHT22;8529;48.108;-1.706;2022-07-03T07:00:29;17.30;99.90
16825;DHT22;8529;48.108;-1.706;2022-07-03T07:02:56;17.50;99.90
16825;DHT22;8529;48.108;-1.706;2022-07-03T07:05:23;17.60;99.90
16825;DHT22;8529;48.108;-1.706;2022-07-03T07:07:50;17.50;99.90
16825;DHT22;8529;48.108;-1.706;2022-07-03T07:10:17;17.40;99.90
16825;DHT22;8529;48.108;-1.706;2022-07-03T07:12:44;17.30;99.90
16825;DHT22;8529;48.108;-1.706;2022-07-03T07:15:12;17.20;99.90
16825;DHT22;8529;48.108;-1.706;2022-07-03T07:17:39;17.10;99.90
16825;DHT22;8529;48.108;-1.706;2022-07-03T07:20:07;17.00;99.90
16825;DHT22;8529;48.108;-1.706;2022-07-03T07:22:34;16.90;99.90
16825;DHT22;8529;48.108;-1.706;2022-07-03T07:25:02;16.90;99.90
16825;DHT22;8529;48.108;-1.706;2022-07-03T07:27:29;16.90;99.90
16825;DHT22;8529;48.108;-1.706;2022-07-03T07:29:56;16.90;99.90
16825;DHT22;8529;48.108;-1.706;2022-07-03T07:32:25;17.00;99.90
16825;DHT22;8529;48.108;-1.706;2022-07-03T07:34:51;17.00;99.90
16825;DHT22;8529;48.108;-1.706;2022-07-03T07:37:18;17.00;99.90
16825;DHT22;8529;48.108;-1.706;2022-07-03T07:39:45;17.10;99.90
16825;DHT22;8529;48.108;-1.706;2022-07-03T07:42:12;17.10;99.90
16825;DHT22;8529;48.108;-1.706;2022-07-03T07:44:41;17.10;99.90
16825;DHT22;8529;48.108;-1.706;2022-07-03T07:47:08;17.10;99.90
16825;DHT22;8529;48.108;-1.706;2022-07-03T07:49:36;17.20;99.90
16825;DHT22;8529;48.108;-1.706;2022-07-03T07:52:04;17.20;99.90
16825;DHT22;8529;48.108;-1.706;2022-07-03T07:54:31;17.30;99.90
16825;DHT22;8529;48.108;-1.706;2022-07-03T07:56:58;17.40;99.90
16825;DHT22;8529;48.108;-1.706;2022-07-03T07:59:24;17.40;99.90
16825;DHT22;8529;48.108;-1.706;2022-07-03T08:01:51;17.50;99.90
16825;DHT22;8529;48.108;-1.706;2022-07-03T08:04:46;17.50;99.90
16825;DHT22;8529;48.108;-1.706;2022-07-03T08:07:30;17.60;99.90
16825;DHT22;8529;48.108;-1.706;2022-07-03T08:09:57;17.60;99.90
16825;DHT22;8529;48.108;-1.706;2022-07-03T08:12:24;17.70;99.90
16825;DHT22;8529;48.108;-1.706;2022-07-03T08:14:51;17.70;99.90
16825;DHT22;8529;48.108;-1.706;2022-07-03T08:17:21;17.70;99.90
16825;DHT22;8529;48.108;-1.706;2022-07-03T08:19:49;17.80;99.60
16825;DHT22;8529;48.108;-1.706;2022-07-03T08:22:16;17.70;99.40
16825;DHT22;8529;48.108;-1.706;2022-07-03T08:24:43;17.70;99.40
16825;DHT22;8529;48.108;-1.706;2022-07-03T08:27:10;17.70;99.20
16825;DHT22;8529;48.108;-1.706;2022-07-03T08:29:37;17.70;99.20
16825;DHT22;8529;48.108;-1.706;2022-07-03T08:32:05;17.70;99.30
16825;DHT22;8529;48.108;-1.706;2022-07-03T08:34:32;17.70;99.30
16825;DHT22;8529;48.108;-1.706;2022-07-03T08:37:01;17.80;99.00
16825;DHT22;8529;48.108;-1.706;2022-07-03T08:39:28;17.80;99.00
16825;DHT22;8529;48.108;-1.706;2022-07-03T08:41:56;17.90;99.00
16825;DHT22;8529;48.108;-1.706;2022-07-03T08:44:24;17.90;98.80
16825;DHT22;8529;48.108;-1.706;2022-07-03T08:46:51;18.00;98.70
16825;DHT22;8529;48.108;-1.706;2022-07-03T08:49:19;18.10;98.60
16825;DHT22;8529;48.108;-1.706;2022-07-03T08:51:47;18.20;98.00
16825;DHT22;8529;48.108;-1.706;2022-07-03T08:54:16;18.20;97.90
16825;DHT22;8529;48.108;-1.706;2022-07-03T08:56:44;18.30;97.80
16825;DHT22;8529;48.108;-1.706;2022-07-03T08:59:13;18.30;97.70
16825;DHT22;8529;48.108;-1.706;2022-07-03T09:01:40;18.30;97.70
16825;DHT22;8529;48.108;-1.706;2022-07-03T09:04:11;18.30;97.60
16825;DHT22;8529;48.108;-1.706;2022-07-03T09:06:39;18.40;97.60
16825;DHT22;8529;48.108;-1.706;2022-07-03T09:09:07;18.50;97.60
16825;DHT22;8529;48.108;-1.706;2022-07-03T09:11:36;18.50;97.50
16825;DHT22;8529;48.108;-1.706;2022-07-03T09:14:03;18.50;97.30
16825;DHT22;8529;48.108;-1.706;2022-07-03T09:16:33;18.60;97.10
16825;DHT22;8529;48.108;-1.706;2022-07-03T09:19:00;18.60;96.90
16825;DHT22;8529;48.108;-1.706;2022-07-03T09:21:35;18.60;97.10
16825;DHT22;8529;48.108;-1.706;2022-07-03T09:24:04;18.60;97.00
16825;DHT22;8529;48.108;-1.706;2022-07-03T09:26:32;18.60;97.10
16825;DHT22;8529;48.108;-1.706;2022-07-03T09:29:01;18.70;97.10
16825;DHT22;8529;48.108;-1.706;2022-07-03T09:31:30;18.80;96.80
16825;DHT22;8529;48.108;-1.706;2022-07-03T09:33:59;18.80;96.70
16825;DHT22;8529;48.108;-1.706;2022-07-03T09:36:39;18.80;96.20
16825;DHT22;8529;48.108;-1.706;2022-07-03T09:39:16;18.80;96.30
16825;DHT22;8529;48.108;-1.706;2022-07-03T09:41:54;18.90;97.00
16825;DHT22;8529;48.108;-1.706;2022-07-03T09:44:35;19.20;96.80
16825;DHT22;8529;48.108;-1.706;2022-07-03T09:47:13;19.50;96.80
16825;DHT22;8529;48.108;-1.706;2022-07-03T09:49:51;19.60;96.10
16825;DHT22;8529;48.108;-1.706;2022-07-03T09:52:30;19.60;95.50
16825;DHT22;8529;48.108;-1.706;2022-07-03T09:54:59;19.60;95.50
16825;DHT22;8529;48.108;-1.706;2022-07-03T09:57:28;19.50;95.40
16825;DHT22;8529;48.108;-1.706;2022-07-03T10:00:17;19.40;95.40
16825;DHT22;8529;48.108;-1.706;2022-07-03T10:02:58;19.40;95.60
16825;DHT22;8529;48.108;-1.706;2022-07-03T10:05:28;19.40;95.80
16825;DHT22;8529;48.108;-1.706;2022-07-03T10:07:56;19.40;96.10
16825;DHT22;8529;48.108;-1.706;2022-07-03T10:10:25;19.40;96.30
16825;DHT22;8529;48.108;-1.706;2022-07-03T10:12:53;19.50;95.90
16825;DHT22;8529;48.108;-1.706;2022-07-03T10:15:23;19.60;96.20
16825;DHT22;8529;48.108;-1.706;2022-07-03T10:17:52;19.70;96.40
16825;DHT22;8529;48.108;-1.706;2022-07-03T10:20:25;19.70;95.90
16825;DHT22;8529;48.108;-1.706;2022-07-03T10:22:52;19.80;95.80
16825;DHT22;8529;48.108;-1.706;2022-07-03T10:25:20;19.80;95.50
16825;DHT22;8529;48.108;-1.706;2022-07-03T10:27:47;19.80;95.20
16825;DHT22;8529;48.108;-1.706;2022-07-03T10:30:15;19.90;95.20
16825;DHT22;8529;48.108;-1.706;2022-07-03T10:32:46;19.80;95.40
16825;DHT22;8529;48.108;-1.706;2022-07-03T10:35:15;19.90;95.20
16825;DHT22;8529;48.108;-1.706;2022-07-03T10:38:12;20.00;95.10
16825;DHT22;8529;48.108;-1.706;2022-07-03T10:40:45;20.00;95.40
16825;DHT22;8529;48.108;-1.706;2022-07-03T10:43:37;20.20;94.90
16825;DHT22;8529;48.108;-1.706;2022-07-03T10:46:23;20.20;94.30
16825;DHT22;8529;48.108;-1.706;2022-07-03T10:48:59;20.30;94.60
16825;DHT22;8529;48.108;-1.706;2022-07-03T10:51:27;20.30;94.50
16825;DHT22;8529;48.108;-1.706;2022-07-03T10:54:15;20.40;94.40
16825;DHT22;8529;48.108;-1.706;2022-07-03T10:57:05;20.30;94.20
16825;DHT22;8529;48.108;-1.706;2022-07-03T11:00:00;20.30;93.70
16825;DHT22;8529;48.108;-1.706;2022-07-03T11:02:32;20.30;93.90
16825;DHT22;8529;48.108;-1.706;2022-07-03T11:05:27;20.30;93.60
16825;DHT22;8529;48.108;-1.706;2022-07-03T11:08:09;20.30;93.80
16825;DHT22;8529;48.108;-1.706;2022-07-03T11:10:38;20.30;93.80
16825;DHT22;8529;48.108;-1.706;2022-07-03T11:13:16;20.40;93.40
16825;DHT22;8529;48.108;-1.706;2022-07-03T11:15:47;20.40;93.60
16825;DHT22;8529;48.108;-1.706;2022-07-03T11:21:25;20.50;93.80
16825;DHT22;8529;48.108;-1.706;2022-07-03T11:24:23;20.70;93.30
16825;DHT22;8529;48.108;-1.706;2022-07-03T11:27:18;20.70;93.30
16825;DHT22;8529;48.108;-1.706;2022-07-03T11:29:56;20.90;93.20
16825;DHT22;8529;48.108;-1.706;2022-07-03T11:32:46;21.00;93.30
16825;DHT22;8529;48.108;-1.706;2022-07-03T11:38:27;21.10;92.80
16825;DHT22;8529;48.108;-1.706;2022-07-03T11:40:58;21.00;92.30
16825;DHT22;8529;48.108;-1.706;2022-07-03T11:43:25;21.00;92.60
16825;DHT22;8529;48.108;-1.706;2022-07-03T11:45:52;21.00;93.00
16825;DHT22;8529;48.108;-1.706;2022-07-03T11:48:20;21.10;93.40
16825;DHT22;8529;48.108;-1.706;2022-07-03T11:50:48;21.30;93.70
16825;DHT22;8529;48.108;-1.706;2022-07-03T11:53:21;21.30;93.50
16825;DHT22;8529;48.108;-1.706;2022-07-03T11:55:52;21.30;92.70
16825;DHT22;8529;48.108;-1.706;2022-07-03T11:58:19;21.30;92.00
16825;DHT22;8529;48.108;-1.706;2022-07-03T12:00:46;21.20;91.90
16825;DHT22;8529;48.108;-1.706;2022-07-03T12:03:22;21.20;91.90
16825;DHT22;8529;48.108;-1.706;2022-07-03T12:05:54;21.10;91.80
16825;DHT22;8529;48.108;-1.706;2022-07-03T12:08:25;21.00;91.80
16825;DHT22;8529;48.108;-1.706;2022-07-03T12:10:59;21.10;92.30
16825;DHT22;8529;48.108;-1.706;2022-07-03T12:13:26;21.10;91.90
16825;DHT22;8529;48.108;-1.706;2022-07-03T12:16:02;21.10;92.00
16825;DHT22;8529;48.108;-1.706;2022-07-03T12:18:44;21.10;92.10
16825;DHT22;8529;48.108;-1.706;2022-07-03T12:21:12;21.30;91.40
16825;DHT22;8529;48.108;-1.706;2022-07-03T12:23:42;21.30;91.80
16825;DHT22;8529;48.108;-1.706;2022-07-03T12:26:10;21.30;91.40
16825;DHT22;8529;48.108;-1.706;2022-07-03T12:28:38;21.20;91.60
16825;DHT22;8529;48.108;-1.706;2022-07-03T12:31:05;21.30;91.70
16825;DHT22;8529;48.108;-1.706;2022-07-03T12:33:33;21.40;91.10
16825;DHT22;8529;48.108;-1.706;2022-07-03T12:36:05;21.40;90.80
16825;DHT22;8529;48.108;-1.706;2022-07-03T12:38:33;21.40;90.50
16825;DHT22;8529;48.108;-1.706;2022-07-03T12:41:06;21.40;90.20
16825;DHT22;8529;48.108;-1.706;2022-07-03T12:43:38;21.30;90.70
16825;DHT22;8529;48.108;-1.706;2022-07-03T12:46:21;21.30;90.80
16825;DHT22;8529;48.108;-1.706;2022-07-03T12:48:49;21.30;91.20
16825;DHT22;8529;48.108;-1.706;2022-07-03T12:51:35;21.30;91.20
16825;DHT22;8529;48.108;-1.706;2022-07-03T12:54:02;21.40;90.40
16825;DHT22;8529;48.108;-1.706;2022-07-03T12:56:29;21.40;90.20
16825;DHT22;8529;48.108;-1.706;2022-07-03T12:58:57;21.40;90.40
16825;DHT22;8529;48.108;-1.706;2022-07-03T13:01:43;21.30;90.70
16825;DHT22;8529;48.108;-1.706;2022-07-03T13:04:11;21.20;90.50
16825;DHT22;8529;48.108;-1.706;2022-07-03T13:06:41;21.20;90.90
16825;DHT22;8529;48.108;-1.706;2022-07-03T13:09:08;21.10;90.80
16825;DHT22;8529;48.108;-1.706;2022-07-03T13:11:37;21.20;90.80
16825;DHT22;8529;48.108;-1.706;2022-07-03T13:14:07;21.20;91.30
16825;DHT22;8529;48.108;-1.706;2022-07-03T13:16:40;21.20;91.60
16825;DHT22;8529;48.108;-1.706;2022-07-03T13:19:08;21.20;91.60
16825;DHT22;8529;48.108;-1.706;2022-07-03T13:21:35;21.10;91.20
16825;DHT22;8529;48.108;-1.706;2022-07-03T13:24:03;21.20;90.40
16825;DHT22;8529;48.108;-1.706;2022-07-03T13:26:30;21.10;90.80
16825;DHT22;8529;48.108;-1.706;2022-07-03T13:28:57;21.10;90.90
16825;DHT22;8529;48.108;-1.706;2022-07-03T13:31:26;21.10;91.10
16825;DHT22;8529;48.108;-1.706;2022-07-03T13:33:53;21.10;90.90
16825;DHT22;8529;48.108;-1.706;2022-07-03T13:36:19;21.00;91.00
16825;DHT22;8529;48.108;-1.706;2022-07-03T13:38:46;21.00;91.00
16825;DHT22;8529;48.108;-1.706;2022-07-03T13:41:14;21.00;90.60
16825;DHT22;8529;48.108;-1.706;2022-07-03T13:43:40;21.00;90.70
16825;DHT22;8529;48.108;-1.706;2022-07-03T13:46:07;21.00;91.10
16825;DHT22;8529;48.108;-1.706;2022-07-03T13:48:36;21.10;91.10
16825;DHT22;8529;48.108;-1.706;2022-07-03T13:51:03;21.10;91.00
16825;DHT22;8529;48.108;-1.706;2022-07-03T13:53:30;21.20;91.00
16825;DHT22;8529;48.108;-1.706;2022-07-03T13:55:57;21.20;91.00
16825;DHT22;8529;48.108;-1.706;2022-07-03T13:58:25;21.30;91.10
16825;DHT22;8529;48.108;-1.706;2022-07-03T14:00:52;21.30;91.10
16825;DHT22;8529;48.108;-1.706;2022-07-03T14:03:19;21.30;91.30
16825;DHT22;8529;48.108;-1.706;2022-07-03T14:05:48;21.30;91.50
16825;DHT22;8529;48.108;-1.706;2022-07-03T14:08:18;21.30;91.30
16825;DHT22;8529;48.108;-1.706;2022-07-03T14:10:45;21.30;91.70
16825;DHT22;8529;48.108;-1.706;2022-07-03T14:13:12;21.30;91.70
16825;DHT22;8529;48.108;-1.706;2022-07-03T14:15:40;21.30;91.40
16825;DHT22;8529;48.108;-1.706;2022-07-03T14:18:07;21.20;91.10
16825;DHT22;8529;48.108;-1.706;2022-07-03T14:20:34;21.30;91.50
16825;DHT22;8529;48.108;-1.706;2022-07-03T14:23:02;21.30;91.50
16825;DHT22;8529;48.108;-1.706;2022-07-03T14:25:29;21.30;92.10
16825;DHT22;8529;48.108;-1.706;2022-07-03T14:27:56;21.40;92.20
16825;DHT22;8529;48.108;-1.706;2022-07-03T14:30:41;21.40;91.90
16825;DHT22;8529;48.108;-1.706;2022-07-03T14:33:25;21.40;92.70
16825;DHT22;8529;48.108;-1.706;2022-07-03T14:35:52;21.40;92.00
16825;DHT22;8529;48.108;-1.706;2022-07-03T14:38:21;21.30;91.90
16825;DHT22;8529;48.108;-1.706;2022-07-03T14:40:47;21.30;92.10
16825;DHT22;8529;48.108;-1.706;2022-07-03T14:43:14;21.30;91.80
16825;DHT22;8529;48.108;-1.706;2022-07-03T14:45:41;21.30;91.60
16825;DHT22;8529;48.108;-1.706;2022-07-03T14:48:08;21.30;91.80
16825;DHT22;8529;48.108;-1.706;2022-07-03T14:50:35;21.30;91.70
16825;DHT22;8529;48.108;-1.706;2022-07-03T14:53:05;21.40;91.80
16825;DHT22;8529;48.108;-1.706;2022-07-03T14:55:38;21.40;92.10
16825;DHT22;8529;48.108;-1.706;2022-07-03T14:58:17;21.40;92.30
16825;DHT22;8529;48.108;-1.706;2022-07-03T15:00:49;21.40;92.40
16825;DHT22;8529;48.108;-1.706;2022-07-03T15:03:18;21.40;92.60
16825;DHT22;8529;48.108;-1.706;2022-07-03T15:05:47;21.40;92.50
16825;DHT22;8529;48.108;-1.706;2022-07-03T15:08:33;21.30;91.80
16825;DHT22;8529;48.108;-1.706;2022-07-03T15:11:07;21.30;92.10
16825;DHT22;8529;48.108;-1.706;2022-07-03T15:14:02;21.30;92.20
16825;DHT22;8529;48.108;-1.706;2022-07-03T15:16:29;21.30;91.90
16825;DHT22;8529;48.108;-1.706;2022-07-03T15:18:58;21.20;91.70
16825;DHT22;8529;48.108;-1.706;2022-07-03T15:21:29;21.20;91.30
16825;DHT22;8529;48.108;-1.706;2022-07-03T15:23:56;21.20;91.40
16825;DHT22;8529;48.108;-1.706;2022-07-03T15:26:26;21.20;91.10
16825;DHT22;8529;48.108;-1.706;2022-07-03T15:28:54;21.20;91.10
16825;DHT22;8529;48.108;-1.706;2022-07-03T15:31:22;21.20;91.00
16825;DHT22;8529;48.108;-1.706;2022-07-03T15:33:49;21.20;91.20
16825;DHT22;8529;48.108;-1.706;2022-07-03T15:36:18;21.20;91.50
16825;DHT22;8529;48.108;-1.706;2022-07-03T15:38:52;21.20;91.40
16825;DHT22;8529;48.108;-1.706;2022-07-03T15:41:28;21.20;91.20
16825;DHT22;8529;48.108;-1.706;2022-07-03T15:44:10;21.20;91.00
16825;DHT22;8529;48.108;-1.706;2022-07-03T15:46:48;21.20;91.00
16825;DHT22;8529;48.108;-1.706;2022-07-03T15:49:26;21.10;91.10
16825;DHT22;8529;48.108;-1.706;2022-07-03T15:52:06;21.10;91.20
16825;DHT22;8529;48.108;-1.706;2022-07-03T15:54:43;21.10;91.40
16825;DHT22;8529;48.108;-1.706;2022-07-03T15:57:17;21.10;91.50